Briefing drone pour Le creusot

Rechercher une autre localisation

Conditions de vol :


Nous sommes le : Samedi 21 mai 2022
Il est 21:30 UTC (23:30 LT)

Lever de soleil : 03:34 UTC (05:34 LT)
Coucher de soleil : 19:43 UTC (21:43 LT)

Météo

L'essentiel des conditions de vol

VIGILANCE MÉTÉO FRANCE - Saône-et-Loire (71)
Pas de vigilances particulieres
METAR de LFLH
LFLH 211800Z AUTO 04003KT 360V070 CAVOK 25/13 Q1018

Date d'émission: 21/05/2022
Heure d'émission: 18:00 UTC
Vent: 040° (variable du 360° au 070°) pour 3 KT (6 km/h)
Visibilité horizontale: > 10 km
Plafond : Plafond et visibilité OK (CAVOK)
Température: 25 °C
Point de rosée: 13 °C
Humidité: 47%
Pression (QNH): 1018 hPa
Prévision 24h pour Chalon-sur-saone (20 km)
Vent : 192° pour 11 KT (39 km/h)
Temperature Maxi: 18 °C
Temperature Min: 18 °C
Humidité : 87%
Condition : Légère pluie



Warning: count(): Parameter must be an array or an object that implements Countable in /homepages/6/d509196549/htdocs/droneoxygene/briefing.php on line 743
WEBCAM POUR LE CREUSOT

Réglementation

Voler en sécurité

CARTES AERONAUTIQUE 1/500.000
CARTES VAC (LFLH)
SUP AIP




Chargement des AIP...
NOTAM (LE CREUSOT + Terrain à proximité / FIR )




Chargement des NOTAMS...
CONTACT PREFECTURE 71


Avertissement : Les données mises à disposition sont indicatives. Oxygène Drone ne pourra être tenu responsable de dégâts causés aux biens et aux personnes.